sensor_id;sensor_type;location;lat;lon;timestamp;pressure;altitude;pressure_sealevel;temperature;humidity
41632;BME280;37452;51.938;4.624;2023-02-16T00:00:19;78448.66;;;-142.75;100.00
41632;BME280;37452;51.938;4.624;2023-02-16T00:02:45;78444.72;;;-142.75;100.00
41632;BME280;37452;51.938;4.624;2023-02-16T00:05:17;78452.59;;;-142.75;100.00
41632;BME280;37452;51.938;4.624;2023-02-16T00:07:46;78442.75;;;-142.75;100.00
41632;BME280;37452;51.938;4.624;2023-02-16T00:10:11;78438.81;;;-142.75;100.00
41632;BME280;37452;51.938;4.624;2023-02-16T00:12:37;78446.69;;;-142.75;100.00
41632;BME280;37452;51.938;4.624;2023-02-16T00:15:21;78444.72;;;-142.75;100.00
41632;BME280;37452;51.938;4.624;2023-02-16T00:17:46;78442.75;;;-142.75;100.00
41632;BME280;37452;51.938;4.624;2023-02-16T00:20:15;78448.66;;;-142.75;100.00
41632;BME280;37452;51.938;4.624;2023-02-16T00:22:41;78458.50;;;-142.75;100.00
41632;BME280;37452;51.938;4.624;2023-02-16T00:25:07;78438.81;;;-142.75;100.00
41632;BME280;37452;51.938;4.624;2023-02-16T00:27:32;78450.63;;;-142.75;100.00
41632;BME280;37452;51.938;4.624;2023-02-16T00:29:58;78454.56;;;-142.75;100.00
41632;BME280;37452;51.938;4.624;2023-02-16T00:32:23;78456.53;;;-142.75;100.00
41632;BME280;37452;51.938;4.624;2023-02-16T00:34:49;78470.31;;;-142.75;100.00
41632;BME280;37452;51.938;4.624;2023-02-16T00:37:14;78460.47;;;-142.75;100.00
41632;BME280;37452;51.938;4.624;2023-02-16T00:39:40;78452.59;;;-142.75;100.00
41632;BME280;37452;51.938;4.624;2023-02-16T00:44:39;78472.28;;;-142.75;100.00
41632;BME280;37452;51.938;4.624;2023-02-16T00:49:51;78472.28;;;-142.75;100.00
41632;BME280;37452;51.938;4.624;2023-02-16T00:54:59;78480.16;;;-142.75;100.00
41632;BME280;37452;51.938;4.624;2023-02-16T00:57:26;78472.28;;;-142.75;100.00
41632;BME280;37452;51.938;4.624;2023-02-16T01:00:10;78474.25;;;-142.75;100.00
41632;BME280;37452;51.938;4.624;2023-02-16T01:02:36;78478.19;;;-142.75;100.00
41632;BME280;37452;51.938;4.624;2023-02-16T01:05:02;78484.09;;;-142.75;100.00
41632;BME280;37452;51.938;4.624;2023-02-16T01:07:27;78476.22;;;-142.75;100.00
41632;BME280;37452;51.938;4.624;2023-02-16T01:10:11;78480.16;;;-142.75;100.00
41632;BME280;37452;51.938;4.624;2023-02-16T01:12:55;78468.34;;;-142.75;100.00
41632;BME280;37452;51.938;4.624;2023-02-16T01:15:21;78476.22;;;-142.75;100.00
41632;BME280;37452;51.938;4.624;2023-02-16T01:17:48;78472.28;;;-142.75;100.00
41632;BME280;37452;51.938;4.624;2023-02-16T01:20:15;78456.53;;;-142.75;100.00
41632;BME280;37452;51.938;4.624;2023-02-16T01:22:41;78464.41;;;-142.75;100.00
41632;BME280;37452;51.938;4.624;2023-02-16T01:25:08;78472.28;;;-142.75;100.00
41632;BME280;37452;51.938;4.624;2023-02-16T01:27:36;78468.34;;;-142.75;100.00
41632;BME280;37452;51.938;4.624;2023-02-16T01:30:03;78480.16;;;-142.75;100.00
41632;BME280;37452;51.938;4.624;2023-02-16T01:32:29;78478.19;;;-142.75;100.00
41632;BME280;37452;51.938;4.624;2023-02-16T01:34:54;78452.59;;;-142.75;100.00
41632;BME280;37452;51.938;4.624;2023-02-16T01:37:19;78478.19;;;-142.75;100.00
41632;BME280;37452;51.938;4.624;2023-02-16T01:39:44;78472.28;;;-142.75;100.00
41632;BME280;37452;51.938;4.624;2023-02-16T01:42:35;78472.28;;;-142.75;100.00
41632;BME280;37452;51.938;4.624;2023-02-16T01:45:10;78470.31;;;-142.75;100.00
41632;BME280;37452;51.938;4.624;2023-02-16T01:47:44;78452.59;;;-142.75;100.00
41632;BME280;37452;51.938;4.624;2023-02-16T01:52:45;78474.25;;;-142.75;100.00
41632;BME280;37452;51.938;4.624;2023-02-16T01:55:22;78464.41;;;-142.75;100.00
41632;BME280;37452;51.938;4.624;2023-02-16T01:57:53;78462.44;;;-142.75;100.00
41632;BME280;37452;51.938;4.624;2023-02-16T02:03:19;78464.41;;;-142.75;100.00
41632;BME280;37452;51.938;4.624;2023-02-16T02:06:10;78460.47;;;-142.75;100.00
41632;BME280;37452;51.938;4.624;2023-02-16T02:08:40;78462.44;;;-142.75;100.00
41632;BME280;37452;51.938;4.624;2023-02-16T02:13:58;78448.66;;;-142.75;100.00
41632;BME280;37452;51.938;4.624;2023-02-16T02:16:26;78456.53;;;-142.75;100.00
41632;BME280;37452;51.938;4.624;2023-02-16T02:18:52;78452.59;;;-142.75;100.00
41632;BME280;37452;51.938;4.624;2023-02-16T02:24:14;78438.81;;;-142.75;100.00
41632;BME280;37452;51.938;4.624;2023-02-16T02:27:00;78440.78;;;-142.75;100.00
41632;BME280;37452;51.938;4.624;2023-02-16T02:38:46;78432.91;;;-142.75;100.00
41632;BME280;37452;51.938;4.624;2023-02-16T02:41:26;78442.75;;;-142.75;100.00
41632;BME280;37452;51.938;4.624;2023-02-16T02:44:15;78425.03;;;-142.75;100.00
41632;BME280;37452;51.938;4.624;2023-02-16T02:46:42;78436.84;;;-142.75;100.00
41632;BME280;37452;51.938;4.624;2023-02-16T02:49:08;78436.84;;;-142.75;100.00
41632;BME280;37452;51.938;4.624;2023-02-16T02:51:33;78421.09;;;-142.75;100.00
41632;BME280;37452;51.938;4.624;2023-02-16T02:54:09;78417.16;;;-142.75;100.00
41632;BME280;37452;51.938;4.624;2023-02-16T02:57:02;78413.22;;;-142.75;100.00
41632;BME280;37452;51.938;4.624;2023-02-16T03:00:12;78417.16;;;-142.75;100.00
41632;BME280;37452;51.938;4.624;2023-02-16T03:02:57;78413.22;;;-142.75;100.00
41632;BME280;37452;51.938;4.624;2023-02-16T03:05:26;78393.50;;;-142.75;100.00
41632;BME280;37452;51.938;4.624;2023-02-16T03:07:59;78413.22;;;-142.75;100.00
41632;BME280;37452;51.938;4.624;2023-02-16T03:10:38;78401.38;;;-142.75;100.00
41632;BME280;37452;51.938;4.624;2023-02-16T03:13:27;78397.44;;;-142.75;100.00
41632;BME280;37452;51.938;4.624;2023-02-16T03:15:55;78387.59;;;-142.75;100.00
41632;BME280;37452;51.938;4.624;2023-02-16T03:18:24;78393.50;;;-142.75;100.00
41632;BME280;37452;51.938;4.624;2023-02-16T03:21:11;78397.44;;;-142.75;100.00
41632;BME280;37452;51.938;4.624;2023-02-16T03:24:02;78401.38;;;-142.75;100.00
41632;BME280;37452;51.938;4.624;2023-02-16T03:26:48;78393.50;;;-142.75;100.00
41632;BME280;37452;51.938;4.624;2023-02-16T03:29:34;78393.50;;;-142.75;100.00
41632;BME280;37452;51.938;4.624;2023-02-16T03:32:01;78401.38;;;-142.75;100.00
41632;BME280;37452;51.938;4.624;2023-02-16T03:34:26;78393.50;;;-142.75;100.00
41632;BME280;37452;51.938;4.624;2023-02-16T03:36:55;78389.56;;;-142.75;100.00
41632;BME280;37452;51.938;4.624;2023-02-16T03:39:26;78381.69;;;-142.75;100.00
41632;BME280;37452;51.938;4.624;2023-02-16T03:41:53;78373.81;;;-142.75;100.00
41632;BME280;37452;51.938;4.624;2023-02-16T03:44:19;78365.94;;;-142.75;100.00
41632;BME280;37452;51.938;4.624;2023-02-16T03:46:45;78360.03;;;-142.75;100.00
41632;BME280;37452;51.938;4.624;2023-02-16T03:49:14;78348.22;;;-142.75;100.00
41632;BME280;37452;51.938;4.624;2023-02-16T03:51:39;78336.41;;;-142.75;100.00
41632;BME280;37452;51.938;4.624;2023-02-16T03:54:04;78338.38;;;-142.75;100.00
41632;BME280;37452;51.938;4.624;2023-02-16T03:56:29;78330.50;;;-142.75;100.00
41632;BME280;37452;51.938;4.624;2023-02-16T03:58:55;78344.28;;;-142.75;100.00
41632;BME280;37452;51.938;4.624;2023-02-16T04:01:20;78338.38;;;-142.75;100.00
41632;BME280;37452;51.938;4.624;2023-02-16T04:03:45;78330.50;;;-142.75;100.00
41632;BME280;37452;51.938;4.624;2023-02-16T04:06:10;78334.44;;;-142.75;100.00
41632;BME280;37452;51.938;4.624;2023-02-16T04:08:36;78322.63;;;-142.75;100.00
41632;BME280;37452;51.938;4.624;2023-02-16T04:11:01;78316.72;;;-142.75;100.00
41632;BME280;37452;51.938;4.624;2023-02-16T04:14:24;78322.63;;;-142.75;100.00
41632;BME280;37452;51.938;4.624;2023-02-16T04:16:49;78330.50;;;-142.75;100.00
41632;BME280;37452;51.938;4.624;2023-02-16T04:19:14;78326.56;;;-142.75;100.00
41632;BME280;37452;51.938;4.624;2023-02-16T04:21:40;78324.59;;;-142.75;100.00
41632;BME280;37452;51.938;4.624;2023-02-16T04:24:07;78326.56;;;-142.75;100.00
41632;BME280;37452;51.938;4.624;2023-02-16T04:26:32;78330.50;;;-142.75;100.00
41632;BME280;37452;51.938;4.624;2023-02-16T04:28:57;78320.66;;;-142.75;100.00
41632;BME280;37452;51.938;4.624;2023-02-16T04:31:22;78318.69;;;-142.75;100.00
41632;BME280;37452;51.938;4.624;2023-02-16T04:33:48;78308.84;;;-142.75;100.00
41632;BME280;37452;51.938;4.624;2023-02-16T04:36:13;78314.75;;;-142.75;100.00
41632;BME280;37452;51.938;4.624;2023-02-16T04:38:38;78302.94;;;-142.75;100.00
41632;BME280;37452;51.938;4.624;2023-02-16T04:41:04;78300.97;;;-142.75;100.00
41632;BME280;37452;51.938;4.624;2023-02-16T04:43:29;78304.91;;;-142.75;100.00
41632;BME280;37452;51.938;4.624;2023-02-16T04:45:54;78308.84;;;-142.75;100.00
41632;BME280;37452;51.938;4.624;2023-02-16T04:48:20;78316.72;;;-142.75;100.00
41632;BME280;37452;51.938;4.624;2023-02-16T04:50:45;78318.69;;;-142.75;100.00
41632;BME280;37452;51.938;4.624;2023-02-16T04:53:10;78318.69;;;-142.75;100.00
41632;BME280;37452;51.938;4.624;2023-02-16T04:55:35;78332.47;;;-142.75;100.00
41632;BME280;37452;51.938;4.624;2023-02-16T04:58:01;78326.56;;;-142.75;100.00
41632;BME280;37452;51.938;4.624;2023-02-16T05:00:26;78330.50;;;-142.75;100.00
41632;BME280;37452;51.938;4.624;2023-02-16T05:02:51;78334.44;;;-142.75;100.00
41632;BME280;37452;51.938;4.624;2023-02-16T05:05:17;78336.41;;;-142.75;100.00
41632;BME280;37452;51.938;4.624;2023-02-16T05:07:42;78330.50;;;-142.75;100.00
41632;BME280;37452;51.938;4.624;2023-02-16T05:10:08;78322.63;;;-142.75;100.00
41632;BME280;37452;51.938;4.624;2023-02-16T05:12:33;78324.59;;;-142.75;100.00
41632;BME280;37452;51.938;4.624;2023-02-16T05:15:17;78324.59;;;-142.75;100.00
41632;BME280;37452;51.938;4.624;2023-02-16T05:17:43;78324.59;;;-142.75;100.00
41632;BME280;37452;51.938;4.624;2023-02-16T05:20:09;78324.59;;;-142.75;100.00
41632;BME280;37452;51.938;4.624;2023-02-16T05:22:35;78326.56;;;-142.75;100.00
41632;BME280;37452;51.938;4.624;2023-02-16T05:25:04;78318.69;;;-142.75;100.00
41632;BME280;37452;51.938;4.624;2023-02-16T05:27:30;78320.66;;;-142.75;100.00
41632;BME280;37452;51.938;4.624;2023-02-16T05:29:55;78326.56;;;-142.75;100.00
41632;BME280;37452;51.938;4.624;2023-02-16T05:32:22;78316.72;;;-142.75;100.00
41632;BME280;37452;51.938;4.624;2023-02-16T05:34:47;78308.84;;;-142.75;100.00
41632;BME280;37452;51.938;4.624;2023-02-16T05:37:14;78314.75;;;-142.75;100.00
41632;BME280;37452;51.938;4.624;2023-02-16T05:39:40;78314.75;;;-142.75;100.00
41632;BME280;37452;51.938;4.624;2023-02-16T05:42:05;78306.88;;;-142.75;100.00
41632;BME280;37452;51.938;4.624;2023-02-16T05:44:31;78316.72;;;-142.75;100.00
41632;BME280;37452;51.938;4.624;2023-02-16T05:46:56;78314.75;;;-142.75;100.00
41632;BME280;37452;51.938;4.624;2023-02-16T05:49:21;78324.59;;;-142.75;100.00
41632;BME280;37452;51.938;4.624;2023-02-16T05:51:47;78318.69;;;-142.75;100.00
41632;BME280;37452;51.938;4.624;2023-02-16T05:54:12;78318.69;;;-142.75;100.00
41632;BME280;37452;51.938;4.624;2023-02-16T05:56:46;78320.66;;;-142.75;100.00
41632;BME280;37452;51.938;4.624;2023-02-16T05:59:12;78312.78;;;-142.75;100.00
41632;BME280;37452;51.938;4.624;2023-02-16T06:01:37;78316.72;;;-142.75;100.00
41632;BME280;37452;51.938;4.624;2023-02-16T06:04:06;78324.59;;;-142.75;100.00
41632;BME280;37452;51.938;4.624;2023-02-16T06:06:31;78318.69;;;-142.75;100.00
41632;BME280;37452;51.938;4.624;2023-02-16T06:08:56;78308.84;;;-142.75;100.00
41632;BME280;37452;51.938;4.624;2023-02-16T06:11:21;78322.63;;;-142.75;100.00
41632;BME280;37452;51.938;4.624;2023-02-16T06:14:07;78310.81;;;-142.75;100.00
41632;BME280;37452;51.938;4.624;2023-02-16T06:16:34;78300.97;;;-142.75;100.00
41632;BME280;37452;51.938;4.624;2023-02-16T06:18:59;78300.97;;;-142.75;100.00
41632;BME280;37452;51.938;4.624;2023-02-16T06:21:25;78308.84;;;-142.75;100.00
41632;BME280;37452;51.938;4.624;2023-02-16T06:23:51;78306.88;;;-142.75;100.00
41632;BME280;37452;51.938;4.624;2023-02-16T06:26:17;78297.00;;;-142.75;100.00
41632;BME280;37452;51.938;4.624;2023-02-16T06:28:42;78291.09;;;-142.75;100.00
41632;BME280;37452;51.938;4.624;2023-02-16T06:31:08;78297.00;;;-142.75;100.00
41632;BME280;37452;51.938;4.624;2023-02-16T06:33:33;78302.94;;;-142.75;100.00
41632;BME280;37452;51.938;4.624;2023-02-16T06:35:58;78302.94;;;-142.75;100.00
41632;BME280;37452;51.938;4.624;2023-02-16T06:38:24;78289.13;;;-142.75;100.00
41632;BME280;37452;51.938;4.624;2023-02-16T06:40:53;78291.09;;;-142.75;100.00
41632;BME280;37452;51.938;4.624;2023-02-16T06:43:18;78295.06;;;-142.75;100.00
41632;BME280;37452;51.938;4.624;2023-02-16T06:45:44;78291.09;;;-142.75;100.00
41632;BME280;37452;51.938;4.624;2023-02-16T06:48:09;78295.06;;;-142.75;100.00
41632;BME280;37452;51.938;4.624;2023-02-16T06:50:34;78300.97;;;-142.75;100.00
41632;BME280;37452;51.938;4.624;2023-02-16T06:53:00;78299.00;;;-142.75;100.00
41632;BME280;37452;51.938;4.624;2023-02-16T06:55:25;78312.78;;;-142.75;100.00
41632;BME280;37452;51.938;4.624;2023-02-16T06:57:50;78310.81;;;-142.75;100.00
41632;BME280;37452;51.938;4.624;2023-02-16T07:00:16;78306.88;;;-142.75;100.00
41632;BME280;37452;51.938;4.624;2023-02-16T07:02:41;78302.94;;;-142.75;100.00
41632;BME280;37452;51.938;4.624;2023-02-16T07:05:08;78299.00;;;-142.75;100.00
41632;BME280;37452;51.938;4.624;2023-02-16T07:07:33;78291.09;;;-142.75;100.00
41632;BME280;37452;51.938;4.624;2023-02-16T07:09:59;78300.97;;;-142.75;100.00
41632;BME280;37452;51.938;4.624;2023-02-16T07:12:24;78299.00;;;-142.75;100.00
41632;BME280;37452;51.938;4.624;2023-02-16T07:14:49;78289.13;;;-142.75;100.00
41632;BME280;37452;51.938;4.624;2023-02-16T07:17:15;78287.16;;;-142.75;100.00
41632;BME280;37452;51.938;4.624;2023-02-16T07:19:40;78277.31;;;-142.75;100.00
41632;BME280;37452;51.938;4.624;2023-02-16T07:22:06;78279.28;;;-142.75;100.00
41632;BME280;37452;51.938;4.624;2023-02-16T07:24:31;78271.41;;;-142.75;100.00
41632;BME280;37452;51.938;4.624;2023-02-16T07:26:56;78281.25;;;-142.75;100.00
41632;BME280;37452;51.938;4.624;2023-02-16T07:29:22;78291.09;;;-142.75;100.00
41632;BME280;37452;51.938;4.624;2023-02-16T07:31:47;78275.34;;;-142.75;100.00
41632;BME280;37452;51.938;4.624;2023-02-16T07:34:12;78291.09;;;-142.75;100.00
41632;BME280;37452;51.938;4.624;2023-02-16T07:36:37;78281.25;;;-142.75;100.00
41632;BME280;37452;51.938;4.624;2023-02-16T07:39:03;78273.38;;;-142.75;100.00
41632;BME280;37452;51.938;4.624;2023-02-16T07:41:28;78279.28;;;-142.75;100.00
41632;BME280;37452;51.938;4.624;2023-02-16T07:43:53;78287.16;;;-142.75;100.00
41632;BME280;37452;51.938;4.624;2023-02-16T07:46:19;78291.09;;;-142.75;100.00
41632;BME280;37452;51.938;4.624;2023-02-16T07:48:48;78289.13;;;-142.75;100.00
41632;BME280;37452;51.938;4.624;2023-02-16T07:51:20;78297.00;;;-142.75;100.00
41632;BME280;37452;51.938;4.624;2023-02-16T07:53:46;78302.94;;;-142.75;100.00
41632;BME280;37452;51.938;4.624;2023-02-16T07:56:17;78291.09;;;-142.75;100.00
41632;BME280;37452;51.938;4.624;2023-02-16T07:58:42;78281.25;;;-142.75;100.00
41632;BME280;37452;51.938;4.624;2023-02-16T08:01:08;78295.06;;;-142.75;100.00
41632;BME280;37452;51.938;4.624;2023-02-16T08:03:34;78289.13;;;-142.75;100.00
41632;BME280;37452;51.938;4.624;2023-02-16T08:06:00;78283.22;;;-142.75;100.00
41632;BME280;37452;51.938;4.624;2023-02-16T08:08:25;78287.16;;;-142.75;100.00
41632;BME280;37452;51.938;4.624;2023-02-16T08:10:51;78281.25;;;-142.75;100.00
41632;BME280;37452;51.938;4.624;2023-02-16T08:13:16;78271.41;;;-142.75;100.00
41632;BME280;37452;51.938;4.624;2023-02-16T08:15:42;78269.44;;;-142.75;100.00
41632;BME280;37452;51.938;4.624;2023-02-16T08:18:08;78269.44;;;-142.75;100.00
41632;BME280;37452;51.938;4.624;2023-02-16T08:20:33;78279.28;;;-142.75;100.00
41632;BME280;37452;51.938;4.624;2023-02-16T08:22:58;78265.50;;;-142.75;100.00
41632;BME280;37452;51.938;4.624;2023-02-16T08:25:24;78273.38;;;-142.75;100.00
41632;BME280;37452;51.938;4.624;2023-02-16T08:27:49;78267.47;;;-142.75;100.00
41632;BME280;37452;51.938;4.624;2023-02-16T08:30:15;78259.59;;;-142.75;100.00
41632;BME280;37452;51.938;4.624;2023-02-16T08:32:42;78267.47;;;-142.75;100.00
41632;BME280;37452;51.938;4.624;2023-02-16T08:35:08;78259.59;;;-142.75;100.00
41632;BME280;37452;51.938;4.624;2023-02-16T08:37:36;78271.41;;;-142.75;100.00
41632;BME280;37452;51.938;4.624;2023-02-16T08:40:01;78255.66;;;-142.75;100.00
41632;BME280;37452;51.938;4.624;2023-02-16T08:42:28;78257.63;;;-142.75;100.00
41632;BME280;37452;51.938;4.624;2023-02-16T08:44:54;78251.72;;;-142.75;100.00
41632;BME280;37452;51.938;4.624;2023-02-16T08:47:19;78247.78;;;-142.75;100.00
41632;BME280;37452;51.938;4.624;2023-02-16T08:49:45;78251.72;;;-142.75;100.00
41632;BME280;37452;51.938;4.624;2023-02-16T08:52:10;78249.75;;;-142.75;100.00
41632;BME280;37452;51.938;4.624;2023-02-16T08:54:36;78232.03;;;-142.75;100.00
41632;BME280;37452;51.938;4.624;2023-02-16T08:57:03;78243.84;;;-142.75;100.00
41632;BME280;37452;51.938;4.624;2023-02-16T08:59:28;78228.09;;;-142.75;100.00
41632;BME280;37452;51.938;4.624;2023-02-16T09:01:55;78249.75;;;-142.75;100.00
41632;BME280;37452;51.938;4.624;2023-02-16T09:04:21;78247.78;;;-142.75;100.00
41632;BME280;37452;51.938;4.624;2023-02-16T09:06:46;78232.03;;;-142.75;100.00
41632;BME280;37452;51.938;4.624;2023-02-16T09:09:15;78239.91;;;-142.75;100.00
41632;BME280;37452;51.938;4.624;2023-02-16T09:11:40;78228.09;;;-142.75;100.00
41632;BME280;37452;51.938;4.624;2023-02-16T09:14:06;78214.31;;;-142.75;100.00
41632;BME280;37452;51.938;4.624;2023-02-16T09:16:33;78198.56;;;-142.75;100.00
41632;BME280;37452;51.938;4.624;2023-02-16T09:19:01;78192.66;;;-142.75;100.00
41632;BME280;37452;51.938;4.624;2023-02-16T09:21:26;78210.38;;;-142.75;100.00
41632;BME280;37452;51.938;4.624;2023-02-16T09:23:54;78204.47;;;-142.75;100.00
41632;BME280;37452;51.938;4.624;2023-02-16T09:26:22;78208.41;;;-142.75;100.00
41632;BME280;37452;51.938;4.624;2023-02-16T09:28:48;78208.41;;;-142.75;100.00
41632;BME280;37452;51.938;4.624;2023-02-16T09:31:23;78220.22;;;-142.75;100.00
41632;BME280;37452;51.938;4.624;2023-02-16T09:33:55;78204.47;;;-142.75;100.00
41632;BME280;37452;51.938;4.624;2023-02-16T09:36:21;78192.66;;;-142.75;100.00
41632;BME280;37452;51.938;4.624;2023-02-16T09:38:47;78192.66;;;-142.75;100.00
41632;BME280;37452;51.938;4.624;2023-02-16T09:46:29;78172.94;;;-142.75;100.00
41632;BME280;37452;51.938;4.624;2023-02-16T09:48:55;78149.31;;;-142.75;100.00
41632;BME280;37452;51.938;4.624;2023-02-16T09:51:24;78131.59;;;-142.75;100.00
41632;BME280;37452;51.938;4.624;2023-02-16T09:53:57;78135.53;;;-142.75;100.00
41632;BME280;37452;51.938;4.624;2023-02-16T09:56:39;78113.88;;;-142.75;100.00
41632;BME280;37452;51.938;4.624;2023-02-16T10:02:51;78109.94;;;-142.75;100.00
41632;BME280;37452;51.938;4.624;2023-02-16T10:05:25;78094.19;;;-142.75;100.00
41632;BME280;37452;51.938;4.624;2023-02-16T10:08:01;78086.31;;;-142.75;100.00
41632;BME280;37452;51.938;4.624;2023-02-16T10:10:48;78082.38;;;-142.75;100.00
41632;BME280;37452;51.938;4.624;2023-02-16T10:13:21;78096.16;;;-142.75;100.00
41632;BME280;37452;51.938;4.624;2023-02-16T10:15:49;78090.25;;;-142.75;100.00
41632;BME280;37452;51.938;4.624;2023-02-16T10:18:21;78066.63;;;-142.75;100.00
41632;BME280;37452;51.938;4.624;2023-02-16T10:20:51;78058.72;;;-142.75;100.00
41632;BME280;37452;51.938;4.624;2023-02-16T10:31:22;78066.63;;;-142.75;100.00
41632;BME280;37452;51.938;4.624;2023-02-16T10:34:13;78052.81;;;-142.75;100.00
41632;BME280;37452;51.938;4.624;2023-02-16T10:36:53;78062.69;;;-142.75;100.00
41632;BME280;37452;51.938;4.624;2023-02-16T10:44:53;78078.44;;;-142.75;100.00
41632;BME280;37452;51.938;4.624;2023-02-16T10:47:32;78064.66;;;-142.75;100.00
41632;BME280;37452;51.938;4.624;2023-02-16T10:49:59;78058.72;;;-142.75;100.00
41632;BME280;37452;51.938;4.624;2023-02-16T10:52:24;78046.91;;;-142.75;100.00
41632;BME280;37452;51.938;4.624;2023-02-16T10:54:52;78062.69;;;-142.75;100.00
41632;BME280;37452;51.938;4.624;2023-02-16T10:57:29;78037.06;;;-142.75;100.00
41632;BME280;37452;51.938;4.624;2023-02-16T10:59:56;78019.34;;;-142.75;100.00
41632;BME280;37452;51.938;4.624;2023-02-16T11:05:29;77979.97;;;-142.75;100.00
41632;BME280;37452;51.938;4.624;2023-02-16T11:07:57;77979.97;;;-142.75;100.00
41632;BME280;37452;51.938;4.624;2023-02-16T11:10:49;77966.19;;;-142.75;100.00
41632;BME280;37452;51.938;4.624;2023-02-16T11:13:24;77905.13;;;-142.75;100.00
41632;BME280;37452;51.938;4.624;2023-02-16T11:15:53;77826.38;;;-142.75;100.00
41632;BME280;37452;51.938;4.624;2023-02-16T11:18:32;77794.88;;;-142.75;100.00
41632;BME280;37452;51.938;4.624;2023-02-16T11:20:58;77798.81;;;-142.75;100.00
41632;BME280;37452;51.938;4.624;2023-02-16T11:26:11;77846.06;;;-142.75;100.00
41632;BME280;37452;51.938;4.624;2023-02-16T11:28:47;77857.88;;;-142.75;100.00
41632;BME280;37452;51.938;4.624;2023-02-16T11:34:02;77913.03;;;-142.75;100.00
41632;BME280;37452;51.938;4.624;2023-02-16T11:36:30;77913.03;;;-142.75;100.00
41632;BME280;37452;51.938;4.624;2023-02-16T11:39:13;77932.72;;;-142.75;100.00
41632;BME280;37452;51.938;4.624;2023-02-16T11:41:51;77936.66;;;-142.75;100.00
41632;BME280;37452;51.938;4.624;2023-02-16T11:44:30;77893.31;;;-142.75;100.00
41632;BME280;37452;51.938;4.624;2023-02-16T11:46:57;77903.16;;;-142.75;100.00
41632;BME280;37452;51.938;4.624;2023-02-16T11:49:28;77861.81;;;-142.75;100.00
41632;BME280;37452;51.938;4.624;2023-02-16T11:51:54;77838.19;;;-142.75;100.00
41632;BME280;37452;51.938;4.624;2023-02-16T11:54:20;77808.66;;;-142.75;100.00
41632;BME280;37452;51.938;4.624;2023-02-16T11:57:04;77743.69;;;-142.75;100.00
41632;BME280;37452;51.938;4.624;2023-02-16T11:59:37;77771.25;;;-142.75;100.00
41632;BME280;37452;51.938;4.624;2023-02-16T12:04:54;77722.00;;;-142.75;100.00
41632;BME280;37452;51.938;4.624;2023-02-16T12:11:00;77676.72;;;-142.75;100.00
41632;BME280;37452;51.938;4.624;2023-02-16T12:13:35;77649.16;;;-142.75;100.00
41632;BME280;37452;51.938;4.624;2023-02-16T12:16:19;77649.16;;;-142.75;100.00
41632;BME280;37452;51.938;4.624;2023-02-16T12:21:43;77641.28;;;-142.75;100.00
41632;BME280;37452;51.938;4.624;2023-02-16T12:24:46;77629.47;;;-142.75;100.00
41632;BME280;37452;51.938;4.624;2023-02-16T12:27:21;77597.97;;;-142.75;100.00
41632;BME280;37452;51.938;4.624;2023-02-16T12:38:27;77635.38;;;-142.75;100.00
41632;BME280;37452;51.938;4.624;2023-02-16T12:46:04;77720.03;;;-142.75;100.00
41632;BME280;37452;51.938;4.624;2023-02-16T12:48:39;77725.97;;;-142.75;100.00
41632;BME280;37452;51.938;4.624;2023-02-16T12:51:14;77712.16;;;-142.75;100.00
41632;BME280;37452;51.938;4.624;2023-02-16T12:53:47;77694.44;;;-142.75;100.00
41632;BME280;37452;51.938;4.624;2023-02-16T12:56:23;77676.72;;;-142.75;100.00
41632;BME280;37452;51.938;4.624;2023-02-16T12:59:05;77700.34;;;-142.75;100.00
41632;BME280;37452;51.938;4.624;2023-02-16T13:01:32;77653.09;;;-142.75;100.00
41632;BME280;37452;51.938;4.624;2023-02-16T13:04:14;77653.09;;;-142.75;100.00
41632;BME280;37452;51.938;4.624;2023-02-16T13:07:02;77672.78;;;-142.75;100.00
41632;BME280;37452;51.938;4.624;2023-02-16T13:09:39;77668.84;;;-142.75;100.00
41632;BME280;37452;51.938;4.624;2023-02-16T13:14:36;77668.84;;;-142.75;100.00
41632;BME280;37452;51.938;4.624;2023-02-16T13:17:10;77676.72;;;-142.75;100.00
41632;BME280;37452;51.938;4.624;2023-02-16T13:19:36;77676.72;;;-142.75;100.00
41632;BME280;37452;51.938;4.624;2023-02-16T13:22:26;77666.88;;;-142.75;100.00
41632;BME280;37452;51.938;4.624;2023-02-16T13:31:10;77653.09;;;-142.75;100.00
41632;BME280;37452;51.938;4.624;2023-02-16T13:34:10;77692.47;;;-142.75;100.00
41632;BME280;37452;51.938;4.624;2023-02-16T13:45:01;77637.34;;;-142.75;100.00
41632;BME280;37452;51.938;4.624;2023-02-16T13:47:36;77680.66;;;-142.75;100.00
41632;BME280;37452;51.938;4.624;2023-02-16T13:50:05;77702.31;;;-142.75;100.00
41632;BME280;37452;51.938;4.624;2023-02-16T13:52:38;77684.59;;;-142.75;100.00
41632;BME280;37452;51.938;4.624;2023-02-16T13:55:22;77674.75;;;-142.75;100.00
41632;BME280;37452;51.938;4.624;2023-02-16T14:00:42;77678.69;;;-142.75;100.00
41632;BME280;37452;51.938;4.624;2023-02-16T14:13:43;77700.34;;;-142.75;100.00
41632;BME280;37452;51.938;4.624;2023-02-16T14:16:24;77696.41;;;-142.75;100.00
41632;BME280;37452;51.938;4.624;2023-02-16T14:18:57;77682.63;;;-142.75;100.00
41632;BME280;37452;51.938;4.624;2023-02-16T14:21:26;77686.56;;;-142.75;100.00
41632;BME280;37452;51.938;4.624;2023-02-16T14:23:54;77676.72;;;-142.75;100.00
41632;BME280;37452;51.938;4.624;2023-02-16T14:26:20;77678.69;;;-142.75;100.00
41632;BME280;37452;51.938;4.624;2023-02-16T14:31:19;77651.13;;;-142.75;100.00
41632;BME280;37452;51.938;4.624;2023-02-16T14:34:04;77670.81;;;-142.75;100.00
41632;BME280;37452;51.938;4.624;2023-02-16T14:36:31;77672.78;;;-142.75;100.00
41632;BME280;37452;51.938;4.624;2023-02-16T14:38:57;77688.53;;;-142.75;100.00